sensor_id;sensor_type;location;lat;lon;timestamp;P1;durP1;ratioP1;P2;durP2;ratioP2
36321;SDS011;23564;48.290;11.460;2022-11-20T00:01:40;5.50;;;2.80;;
36321;SDS011;23564;48.290;11.460;2022-11-20T00:04:06;10.30;;;3.70;;
36321;SDS011;23564;48.290;11.460;2022-11-20T00:06:33;5.97;;;3.08;;
36321;SDS011;23564;48.290;11.460;2022-11-20T00:08:59;4.45;;;3.40;;
36321;SDS011;23564;48.290;11.460;2022-11-20T00:11:26;3.60;;;2.55;;
36321;SDS011;23564;48.290;11.460;2022-11-20T00:13:54;7.30;;;3.10;;
36321;SDS011;23564;48.290;11.460;2022-11-20T00:16:22;4.50;;;2.63;;
36321;SDS011;23564;48.290;11.460;2022-11-20T00:18:49;5.18;;;3.03;;
36321;SDS011;23564;48.290;11.460;2022-11-20T00:21:17;5.75;;;2.72;;
36321;SDS011;23564;48.290;11.460;2022-11-20T00:23:44;5.88;;;3.33;;
36321;SDS011;23564;48.290;11.460;2022-11-20T00:26:11;4.85;;;2.85;;
36321;SDS011;23564;48.290;11.460;2022-11-20T00:28:38;5.13;;;3.28;;
36321;SDS011;23564;48.290;11.460;2022-11-20T00:31:06;7.95;;;3.15;;
36321;SDS011;23564;48.290;11.460;2022-11-20T00:33:33;5.70;;;3.67;;
36321;SDS011;23564;48.290;11.460;2022-11-20T00:36:20;4.18;;;3.08;;
36321;SDS011;23564;48.290;11.460;2022-11-20T00:38:52;6.00;;;3.13;;
36321;SDS011;23564;48.290;11.460;2022-11-20T00:41:22;6.95;;;3.05;;
36321;SDS011;23564;48.290;11.460;2022-11-20T00:43:49;4.30;;;2.97;;
36321;SDS011;23564;48.290;11.460;2022-11-20T00:46:17;5.43;;;3.22;;
36321;SDS011;23564;48.290;11.460;2022-11-20T00:48:44;5.88;;;3.00;;
36321;SDS011;23564;48.290;11.460;2022-11-20T00:51:10;9.02;;;3.67;;
36321;SDS011;23564;48.290;11.460;2022-11-20T00:53:38;7.60;;;3.10;;
36321;SDS011;23564;48.290;11.460;2022-11-20T00:56:04;10.23;;;3.05;;
36321;SDS011;23564;48.290;11.460;2022-11-20T00:58:33;6.57;;;2.88;;
36321;SDS011;23564;48.290;11.460;2022-11-20T01:01:04;8.80;;;3.47;;
36321;SDS011;23564;48.290;11.460;2022-11-20T01:03:35;6.38;;;2.78;;
36321;SDS011;23564;48.290;11.460;2022-11-20T01:06:06;5.47;;;2.75;;
36321;SDS011;23564;48.290;11.460;2022-11-20T01:11:04;6.40;;;2.80;;
36321;SDS011;23564;48.290;11.460;2022-11-20T01:13:32;4.90;;;2.55;;
36321;SDS011;23564;48.290;11.460;2022-11-20T01:16:11;4.55;;;2.53;;
36321;SDS011;23564;48.290;11.460;2022-11-20T01:18:43;6.60;;;2.88;;
36321;SDS011;23564;48.290;11.460;2022-11-20T01:21:20;5.85;;;2.92;;
36321;SDS011;23564;48.290;11.460;2022-11-20T01:23:48;5.10;;;2.70;;
36321;SDS011;23564;48.290;11.460;2022-11-20T01:26:16;6.47;;;2.85;;
36321;SDS011;23564;48.290;11.460;2022-11-20T01:28:43;4.70;;;3.10;;
36321;SDS011;23564;48.290;11.460;2022-11-20T01:33:44;8.85;;;3.13;;
36321;SDS011;23564;48.290;11.460;2022-11-20T01:36:12;5.60;;;2.80;;
36321;SDS011;23564;48.290;11.460;2022-11-20T01:38:38;5.95;;;3.00;;
36321;SDS011;23564;48.290;11.460;2022-11-20T01:41:05;6.72;;;3.30;;
36321;SDS011;23564;48.290;11.460;2022-11-20T01:43:31;6.68;;;3.00;;
36321;SDS011;23564;48.290;11.460;2022-11-20T01:49:02;9.98;;;3.85;;
36321;SDS011;23564;48.290;11.460;2022-11-20T01:51:42;6.68;;;2.92;;
36321;SDS011;23564;48.290;11.460;2022-11-20T01:54:15;9.45;;;3.67;;
36321;SDS011;23564;48.290;11.460;2022-11-20T01:56:46;8.15;;;3.30;;
36321;SDS011;23564;48.290;11.460;2022-11-20T01:59:13;6.80;;;3.60;;
36321;SDS011;23564;48.290;11.460;2022-11-20T02:01:43;4.38;;;2.90;;
36321;SDS011;23564;48.290;11.460;2022-11-20T02:04:08;6.78;;;3.10;;
36321;SDS011;23564;48.290;11.460;2022-11-20T02:06:38;5.40;;;2.90;;
36321;SDS011;23564;48.290;11.460;2022-11-20T02:09:15;5.55;;;2.90;;
36321;SDS011;23564;48.290;11.460;2022-11-20T02:11:41;6.45;;;3.40;;
36321;SDS011;23564;48.290;11.460;2022-11-20T02:14:07;4.88;;;3.10;;
36321;SDS011;23564;48.290;11.460;2022-11-20T02:16:34;4.78;;;3.35;;
36321;SDS011;23564;48.290;11.460;2022-11-20T02:19:02;5.25;;;3.58;;
36321;SDS011;23564;48.290;11.460;2022-11-20T02:21:37;8.25;;;3.95;;
36321;SDS011;23564;48.290;11.460;2022-11-20T02:24:17;6.65;;;3.40;;
36321;SDS011;23564;48.290;11.460;2022-11-20T02:29:55;6.80;;;3.95;;
36321;SDS011;23564;48.290;11.460;2022-11-20T02:32:34;7.70;;;3.80;;
36321;SDS011;23564;48.290;11.460;2022-11-20T02:37:49;7.32;;;3.75;;
36321;SDS011;23564;48.290;11.460;2022-11-20T02:40:17;5.53;;;3.78;;
36321;SDS011;23564;48.290;11.460;2022-11-20T02:42:43;6.10;;;3.63;;
36321;SDS011;23564;48.290;11.460;2022-11-20T02:45:09;5.50;;;3.53;;
36321;SDS011;23564;48.290;11.460;2022-11-20T02:47:34;7.90;;;3.42;;
36321;SDS011;23564;48.290;11.460;2022-11-20T02:50:00;6.80;;;3.72;;
36321;SDS011;23564;48.290;11.460;2022-11-20T02:52:26;9.20;;;4.45;;
36321;SDS011;23564;48.290;11.460;2022-11-20T02:54:51;7.15;;;3.78;;
36321;SDS011;23564;48.290;11.460;2022-11-20T02:57:17;7.13;;;4.30;;
36321;SDS011;23564;48.290;11.460;2022-11-20T02:59:43;8.13;;;4.00;;
36321;SDS011;23564;48.290;11.460;2022-11-20T03:02:08;7.60;;;3.67;;
36321;SDS011;23564;48.290;11.460;2022-11-20T03:04:34;5.90;;;3.50;;
36321;SDS011;23564;48.290;11.460;2022-11-20T03:07:00;6.55;;;4.30;;
36321;SDS011;23564;48.290;11.460;2022-11-20T03:09:25;5.85;;;4.13;;
36321;SDS011;23564;48.290;11.460;2022-11-20T03:11:51;5.50;;;3.47;;
36321;SDS011;23564;48.290;11.460;2022-11-20T03:14:16;8.70;;;3.92;;
36321;SDS011;23564;48.290;11.460;2022-11-20T03:16:42;7.55;;;3.97;;
36321;SDS011;23564;48.290;11.460;2022-11-20T03:19:08;6.43;;;3.85;;
36321;SDS011;23564;48.290;11.460;2022-11-20T03:21:33;6.20;;;3.95;;
36321;SDS011;23564;48.290;11.460;2022-11-20T03:23:59;7.40;;;4.40;;
36321;SDS011;23564;48.290;11.460;2022-11-20T03:26:26;8.38;;;4.68;;
36321;SDS011;23564;48.290;11.460;2022-11-20T03:28:56;6.65;;;4.05;;
36321;SDS011;23564;48.290;11.460;2022-11-20T03:31:24;6.40;;;3.40;;
36321;SDS011;23564;48.290;11.460;2022-11-20T03:33:51;5.97;;;3.75;;
36321;SDS011;23564;48.290;11.460;2022-11-20T03:36:17;6.07;;;3.95;;
36321;SDS011;23564;48.290;11.460;2022-11-20T03:38:44;7.75;;;3.22;;
36321;SDS011;23564;48.290;11.460;2022-11-20T03:41:10;6.03;;;3.90;;
36321;SDS011;23564;48.290;11.460;2022-11-20T03:43:39;6.47;;;3.78;;
36321;SDS011;23564;48.290;11.460;2022-11-20T03:46:05;5.15;;;3.67;;
36321;SDS011;23564;48.290;11.460;2022-11-20T03:48:31;8.02;;;4.60;;
36321;SDS011;23564;48.290;11.460;2022-11-20T03:51:10;5.43;;;3.70;;
36321;SDS011;23564;48.290;11.460;2022-11-20T03:53:38;5.90;;;3.72;;
36321;SDS011;23564;48.290;11.460;2022-11-20T03:56:05;8.80;;;4.13;;
36321;SDS011;23564;48.290;11.460;2022-11-20T03:58:32;7.13;;;3.75;;
36321;SDS011;23564;48.290;11.460;2022-11-20T04:01:03;6.10;;;3.30;;
36321;SDS011;23564;48.290;11.460;2022-11-20T04:06:00;6.35;;;2.97;;
36321;SDS011;23564;48.290;11.460;2022-11-20T04:08:36;5.32;;;3.22;;
36321;SDS011;23564;48.290;11.460;2022-11-20T04:11:12;7.32;;;3.35;;
36321;SDS011;23564;48.290;11.460;2022-11-20T04:13:38;5.80;;;3.10;;
36321;SDS011;23564;48.290;11.460;2022-11-20T04:16:04;6.43;;;3.50;;
36321;SDS011;23564;48.290;11.460;2022-11-20T04:18:31;4.40;;;3.15;;
36321;SDS011;23564;48.290;11.460;2022-11-20T04:20:57;6.45;;;3.25;;
36321;SDS011;23564;48.290;11.460;2022-11-20T04:23:23;8.55;;;3.40;;
36321;SDS011;23564;48.290;11.460;2022-11-20T04:25:49;9.82;;;3.67;;
36321;SDS011;23564;48.290;11.460;2022-11-20T04:28:15;3.45;;;2.72;;
36321;SDS011;23564;48.290;11.460;2022-11-20T04:30:40;5.20;;;3.53;;
36321;SDS011;23564;48.290;11.460;2022-11-20T04:33:06;4.90;;;2.92;;
36321;SDS011;23564;48.290;11.460;2022-11-20T04:35:35;5.05;;;3.17;;
36321;SDS011;23564;48.290;11.460;2022-11-20T04:38:01;5.35;;;2.95;;
36321;SDS011;23564;48.290;11.460;2022-11-20T04:40:27;3.45;;;2.70;;
36321;SDS011;23564;48.290;11.460;2022-11-20T04:42:53;8.15;;;3.80;;
36321;SDS011;23564;48.290;11.460;2022-11-20T04:45:20;5.88;;;2.95;;
36321;SDS011;23564;48.290;11.460;2022-11-20T04:47:46;6.38;;;3.38;;
36321;SDS011;23564;48.290;11.460;2022-11-20T04:50:11;6.57;;;3.35;;
36321;SDS011;23564;48.290;11.460;2022-11-20T04:52:37;6.47;;;3.42;;
36321;SDS011;23564;48.290;11.460;2022-11-20T04:55:02;5.47;;;3.47;;
36321;SDS011;23564;48.290;11.460;2022-11-20T04:57:28;4.65;;;3.40;;
36321;SDS011;23564;48.290;11.460;2022-11-20T04:59:54;5.63;;;3.42;;
36321;SDS011;23564;48.290;11.460;2022-11-20T05:02:20;6.57;;;3.45;;
36321;SDS011;23564;48.290;11.460;2022-11-20T05:04:45;5.32;;;3.28;;
36321;SDS011;23564;48.290;11.460;2022-11-20T05:07:11;4.60;;;3.20;;
36321;SDS011;23564;48.290;11.460;2022-11-20T05:09:37;5.30;;;3.05;;
36321;SDS011;23564;48.290;11.460;2022-11-20T05:12:02;5.90;;;3.45;;
36321;SDS011;23564;48.290;11.460;2022-11-20T05:14:28;5.43;;;3.22;;
36321;SDS011;23564;48.290;11.460;2022-11-20T05:16:53;4.97;;;3.30;;
36321;SDS011;23564;48.290;11.460;2022-11-20T05:19:19;6.22;;;3.83;;
36321;SDS011;23564;48.290;11.460;2022-11-20T05:21:45;5.18;;;3.60;;
36321;SDS011;23564;48.290;11.460;2022-11-20T05:24:10;4.70;;;3.30;;
36321;SDS011;23564;48.290;11.460;2022-11-20T05:26:36;7.55;;;3.20;;
36321;SDS011;23564;48.290;11.460;2022-11-20T05:29:01;5.20;;;3.05;;
36321;SDS011;23564;48.290;11.460;2022-11-20T05:31:27;6.78;;;3.65;;
36321;SDS011;23564;48.290;11.460;2022-11-20T05:33:52;4.72;;;3.10;;
36321;SDS011;23564;48.290;11.460;2022-11-20T05:36:19;6.00;;;3.50;;
36321;SDS011;23564;48.290;11.460;2022-11-20T05:38:45;5.88;;;3.08;;
36321;SDS011;23564;48.290;11.460;2022-11-20T05:41:11;6.63;;;3.22;;
36321;SDS011;23564;48.290;11.460;2022-11-20T05:43:40;9.45;;;3.28;;
36321;SDS011;23564;48.290;11.460;2022-11-20T05:46:07;4.82;;;3.38;;
36321;SDS011;23564;48.290;11.460;2022-11-20T05:48:33;6.88;;;3.30;;
36321;SDS011;23564;48.290;11.460;2022-11-20T05:51:00;4.22;;;2.58;;
36321;SDS011;23564;48.290;11.460;2022-11-20T05:53:28;4.00;;;2.55;;
36321;SDS011;23564;48.290;11.460;2022-11-20T05:56:13;4.63;;;2.75;;
36321;SDS011;23564;48.290;11.460;2022-11-20T05:58:43;4.75;;;3.22;;
36321;SDS011;23564;48.290;11.460;2022-11-20T06:03:42;6.40;;;2.83;;
36321;SDS011;23564;48.290;11.460;2022-11-20T06:06:10;6.53;;;3.47;;
36321;SDS011;23564;48.290;11.460;2022-11-20T06:08:36;7.68;;;3.25;;
36321;SDS011;23564;48.290;11.460;2022-11-20T06:11:03;5.18;;;2.90;;
36321;SDS011;23564;48.290;11.460;2022-11-20T06:13:29;4.63;;;2.72;;
36321;SDS011;23564;48.290;11.460;2022-11-20T06:15:55;5.05;;;2.38;;
36321;SDS011;23564;48.290;11.460;2022-11-20T06:18:20;4.22;;;3.25;;
36321;SDS011;23564;48.290;11.460;2022-11-20T06:20:46;5.30;;;2.90;;
36321;SDS011;23564;48.290;11.460;2022-11-20T06:23:12;6.85;;;3.45;;
36321;SDS011;23564;48.290;11.460;2022-11-20T06:25:38;6.60;;;3.30;;
36321;SDS011;23564;48.290;11.460;2022-11-20T06:28:04;5.10;;;3.15;;
36321;SDS011;23564;48.290;11.460;2022-11-20T06:30:30;3.80;;;2.60;;
36321;SDS011;23564;48.290;11.460;2022-11-20T06:32:55;6.10;;;3.08;;
36321;SDS011;23564;48.290;11.460;2022-11-20T06:35:21;4.55;;;3.05;;
36321;SDS011;23564;48.290;11.460;2022-11-20T06:37:47;5.50;;;2.88;;
36321;SDS011;23564;48.290;11.460;2022-11-20T06:40:12;3.65;;;2.45;;
36321;SDS011;23564;48.290;11.460;2022-11-20T06:42:38;3.83;;;2.70;;
36321;SDS011;23564;48.290;11.460;2022-11-20T06:45:03;5.97;;;2.95;;
36321;SDS011;23564;48.290;11.460;2022-11-20T06:47:29;10.82;;;2.70;;
36321;SDS011;23564;48.290;11.460;2022-11-20T06:49:55;8.68;;;3.38;;
36321;SDS011;23564;48.290;11.460;2022-11-20T06:52:20;4.40;;;2.75;;
36321;SDS011;23564;48.290;11.460;2022-11-20T06:54:46;4.78;;;2.50;;
36321;SDS011;23564;48.290;11.460;2022-11-20T06:57:12;4.78;;;2.97;;
36321;SDS011;23564;48.290;11.460;2022-11-20T06:59:37;6.85;;;2.75;;
36321;SDS011;23564;48.290;11.460;2022-11-20T07:02:03;4.18;;;2.88;;
36321;SDS011;23564;48.290;11.460;2022-11-20T07:04:28;6.68;;;3.00;;
36321;SDS011;23564;48.290;11.460;2022-11-20T07:06:54;4.00;;;2.70;;
36321;SDS011;23564;48.290;11.460;2022-11-20T07:09:19;3.78;;;2.80;;
36321;SDS011;23564;48.290;11.460;2022-11-20T07:11:45;5.28;;;2.70;;
36321;SDS011;23564;48.290;11.460;2022-11-20T07:14:10;4.63;;;2.90;;
36321;SDS011;23564;48.290;11.460;2022-11-20T07:16:36;5.30;;;2.88;;
36321;SDS011;23564;48.290;11.460;2022-11-20T07:19:01;4.63;;;3.22;;
36321;SDS011;23564;48.290;11.460;2022-11-20T07:21:27;4.10;;;2.65;;
36321;SDS011;23564;48.290;11.460;2022-11-20T07:23:52;4.00;;;2.92;;
36321;SDS011;23564;48.290;11.460;2022-11-20T07:26:18;3.88;;;2.42;;
36321;SDS011;23564;48.290;11.460;2022-11-20T07:28:44;5.72;;;3.35;;
36321;SDS011;23564;48.290;11.460;2022-11-20T07:31:10;3.25;;;2.17;;
36321;SDS011;23564;48.290;11.460;2022-11-20T07:33:37;6.45;;;2.97;;
36321;SDS011;23564;48.290;11.460;2022-11-20T07:36:03;7.35;;;2.55;;
36321;SDS011;23564;48.290;11.460;2022-11-20T07:38:29;4.00;;;2.65;;
36321;SDS011;23564;48.290;11.460;2022-11-20T07:40:55;5.35;;;3.15;;
36321;SDS011;23564;48.290;11.460;2022-11-20T07:43:22;4.47;;;2.95;;
36321;SDS011;23564;48.290;11.460;2022-11-20T07:45:48;3.33;;;2.38;;
36321;SDS011;23564;48.290;11.460;2022-11-20T07:48:13;5.65;;;2.80;;
36321;SDS011;23564;48.290;11.460;2022-11-20T07:50:39;5.05;;;2.92;;
36321;SDS011;23564;48.290;11.460;2022-11-20T07:53:05;4.28;;;2.90;;
36321;SDS011;23564;48.290;11.460;2022-11-20T07:55:30;6.78;;;2.65;;
36321;SDS011;23564;48.290;11.460;2022-11-20T07:57:57;8.02;;;3.17;;
36321;SDS011;23564;48.290;11.460;2022-11-20T08:00:23;5.78;;;3.15;;
36321;SDS011;23564;48.290;11.460;2022-11-20T08:02:50;7.05;;;3.15;;
36321;SDS011;23564;48.290;11.460;2022-11-20T08:05:15;5.07;;;3.15;;
36321;SDS011;23564;48.290;11.460;2022-11-20T08:07:42;5.50;;;2.75;;
36321;SDS011;23564;48.290;11.460;2022-11-20T08:10:09;6.05;;;3.42;;
36321;SDS011;23564;48.290;11.460;2022-11-20T08:12:42;5.35;;;2.75;;
36321;SDS011;23564;48.290;11.460;2022-11-20T08:15:27;6.47;;;2.72;;
36321;SDS011;23564;48.290;11.460;2022-11-20T08:17:58;4.63;;;3.22;;
36321;SDS011;23564;48.290;11.460;2022-11-20T08:20:24;5.47;;;2.80;;
36321;SDS011;23564;48.290;11.460;2022-11-20T08:22:50;7.45;;;2.85;;
36321;SDS011;23564;48.290;11.460;2022-11-20T08:25:15;6.28;;;3.20;;
36321;SDS011;23564;48.290;11.460;2022-11-20T08:27:41;7.43;;;3.20;;
36321;SDS011;23564;48.290;11.460;2022-11-20T08:30:07;4.28;;;2.88;;
36321;SDS011;23564;48.290;11.460;2022-11-20T08:32:33;5.45;;;3.45;;
36321;SDS011;23564;48.290;11.460;2022-11-20T08:35:01;4.38;;;2.95;;
36321;SDS011;23564;48.290;11.460;2022-11-20T08:37:26;7.18;;;3.28;;
36321;SDS011;23564;48.290;11.460;2022-11-20T08:39:52;5.75;;;3.30;;
36321;SDS011;23564;48.290;11.460;2022-11-20T08:42:18;5.22;;;2.85;;
36321;SDS011;23564;48.290;11.460;2022-11-20T08:44:44;5.63;;;3.35;;
36321;SDS011;23564;48.290;11.460;2022-11-20T08:47:09;6.53;;;3.10;;
36321;SDS011;23564;48.290;11.460;2022-11-20T08:49:35;5.60;;;3.33;;
36321;SDS011;23564;48.290;11.460;2022-11-20T08:52:00;5.00;;;2.90;;
36321;SDS011;23564;48.290;11.460;2022-11-20T08:54:26;5.82;;;2.97;;
36321;SDS011;23564;48.290;11.460;2022-11-20T08:56:51;4.68;;;3.10;;
36321;SDS011;23564;48.290;11.460;2022-11-20T08:59:17;6.88;;;2.92;;
36321;SDS011;23564;48.290;11.460;2022-11-20T09:01:43;5.72;;;2.78;;
36321;SDS011;23564;48.290;11.460;2022-11-20T09:04:08;5.32;;;2.97;;
36321;SDS011;23564;48.290;11.460;2022-11-20T09:06:34;8.18;;;3.42;;
36321;SDS011;23564;48.290;11.460;2022-11-20T09:08:59;6.03;;;2.88;;
36321;SDS011;23564;48.290;11.460;2022-11-20T09:11:25;5.47;;;2.95;;
36321;SDS011;23564;48.290;11.460;2022-11-20T09:13:50;5.13;;;2.40;;
36321;SDS011;23564;48.290;11.460;2022-11-20T09:16:16;5.05;;;2.60;;
36321;SDS011;23564;48.290;11.460;2022-11-20T09:18:41;3.88;;;2.70;;
36321;SDS011;23564;48.290;11.460;2022-11-20T09:21:11;4.00;;;2.60;;
36321;SDS011;23564;48.290;11.460;2022-11-20T09:23:38;3.97;;;2.30;;
36321;SDS011;23564;48.290;11.460;2022-11-20T09:26:04;4.63;;;2.70;;
36321;SDS011;23564;48.290;11.460;2022-11-20T09:28:37;3.85;;;2.42;;
36321;SDS011;23564;48.290;11.460;2022-11-20T09:31:07;8.35;;;2.47;;
36321;SDS011;23564;48.290;11.460;2022-11-20T09:33:34;4.30;;;2.75;;
36321;SDS011;23564;48.290;11.460;2022-11-20T09:36:00;5.50;;;2.47;;
36321;SDS011;23564;48.290;11.460;2022-11-20T09:38:26;6.07;;;2.20;;
36321;SDS011;23564;48.290;11.460;2022-11-20T09:41:02;3.00;;;2.10;;
36321;SDS011;23564;48.290;11.460;2022-11-20T09:46:28;8.00;;;2.30;;
36321;SDS011;23564;48.290;11.460;2022-11-20T09:51:52;4.05;;;2.38;;
36321;SDS011;23564;48.290;11.460;2022-11-20T09:54:35;3.13;;;2.00;;
36321;SDS011;23564;48.290;11.460;2022-11-20T09:57:11;4.53;;;2.22;;
36321;SDS011;23564;48.290;11.460;2022-11-20T09:59:52;4.13;;;2.58;;
36321;SDS011;23564;48.290;11.460;2022-11-20T10:05:06;4.50;;;2.53;;
36321;SDS011;23564;48.290;11.460;2022-11-20T10:08:06;6.18;;;2.70;;
36321;SDS011;23564;48.290;11.460;2022-11-20T10:10:49;5.43;;;2.40;;
36321;SDS011;23564;48.290;11.460;2022-11-20T10:30:01;2.72;;;1.90;;
36321;SDS011;23564;48.290;11.460;2022-11-20T10:32:36;4.78;;;2.05;;
36321;SDS011;23564;48.290;11.460;2022-11-20T10:37:57;3.78;;;1.67;;
36321;SDS011;23564;48.290;11.460;2022-11-20T10:43:18;3.97;;;2.10;;
36321;SDS011;23564;48.290;11.460;2022-11-20T10:48:28;5.85;;;1.80;;
36321;SDS011;23564;48.290;11.460;2022-11-20T10:53:56;2.13;;;1.35;;
36321;SDS011;23564;48.290;11.460;2022-11-20T11:01:56;2.10;;;1.40;;
36321;SDS011;23564;48.290;11.460;2022-11-20T11:07:25;2.17;;;1.25;;
36321;SDS011;23564;48.290;11.460;2022-11-20T11:09:55;2.97;;;1.65;;
36321;SDS011;23564;48.290;11.460;2022-11-20T11:12:23;2.28;;;1.33;;
36321;SDS011;23564;48.290;11.460;2022-11-20T11:14:52;3.42;;;1.27;;
36321;SDS011;23564;48.290;11.460;2022-11-20T11:19:58;2.92;;;1.38;;
36321;SDS011;23564;48.290;11.460;2022-11-20T11:22:42;2.90;;;1.40;;
36321;SDS011;23564;48.290;11.460;2022-11-20T11:25:18;1.92;;;1.40;;
36321;SDS011;23564;48.290;11.460;2022-11-20T11:27:49;1.38;;;1.10;;
36321;SDS011;23564;48.290;11.460;2022-11-20T11:30:17;1.88;;;1.27;;
36321;SDS011;23564;48.290;11.460;2022-11-20T11:32:43;2.88;;;1.42;;
36321;SDS011;23564;48.290;11.460;2022-11-20T11:37:46;1.55;;;1.20;;
36321;SDS011;23564;48.290;11.460;2022-11-20T11:40:13;2.90;;;1.23;;
36321;SDS011;23564;48.290;11.460;2022-11-20T11:42:42;3.85;;;1.25;;
36321;SDS011;23564;48.290;11.460;2022-11-20T11:45:14;2.55;;;1.30;;
36321;SDS011;23564;48.290;11.460;2022-11-20T11:52:33;1.90;;;1.08;;
36321;SDS011;23564;48.290;11.460;2022-11-20T11:55:17;1.90;;;0.88;;
36321;SDS011;23564;48.290;11.460;2022-11-20T11:58:39;2.75;;;0.90;;
36321;SDS011;23564;48.290;11.460;2022-11-20T12:01:02;2.08;;;1.05;;
36321;SDS011;23564;48.290;11.460;2022-11-20T12:03:35;1.05;;;0.93;;
36321;SDS011;23564;48.290;11.460;2022-11-20T12:06:05;1.27;;;0.90;;
36321;SDS011;23564;48.290;11.460;2022-11-20T12:08:46;3.70;;;1.20;;
36321;SDS011;23564;48.290;11.460;2022-11-20T12:14:26;8.05;;;1.20;;
36321;SDS011;23564;48.290;11.460;2022-11-20T12:17:00;2.25;;;1.10;;
36321;SDS011;23564;48.290;11.460;2022-11-20T12:19:28;1.23;;;1.13;;
36321;SDS011;23564;48.290;11.460;2022-11-20T12:24:55;1.38;;;1.27;;
36321;SDS011;23564;48.290;11.460;2022-11-20T12:57:27;2.95;;;1.50;;
36321;SDS011;23564;48.290;11.460;2022-11-20T13:01:52;3.42;;;1.67;;
36321;SDS011;23564;48.290;11.460;2022-11-20T13:07:13;2.10;;;1.45;;
36321;SDS011;23564;48.290;11.460;2022-11-20T13:09:43;2.83;;;1.35;;
36321;SDS011;23564;48.290;11.460;2022-11-20T13:12:11;2.42;;;1.08;;
36321;SDS011;23564;48.290;11.460;2022-11-20T13:14:43;4.53;;;1.60;;
36321;SDS011;23564;48.290;11.460;2022-11-20T13:20:05;3.90;;;1.70;;
36321;SDS011;23564;48.290;11.460;2022-11-20T13:22:47;3.83;;;2.08;;
36321;SDS011;23564;48.290;11.460;2022-11-20T13:27:49;1.83;;;1.50;;
36321;SDS011;23564;48.290;11.460;2022-11-20T13:30:16;3.42;;;1.80;;
36321;SDS011;23564;48.290;11.460;2022-11-20T13:32:54;2.47;;;1.73;;
36321;SDS011;23564;48.290;11.460;2022-11-20T13:35:37;3.97;;;1.83;;
36321;SDS011;23564;48.290;11.460;2022-11-20T13:38:07;2.10;;;1.40;;
36321;SDS011;23564;48.290;11.460;2022-11-20T13:40:50;2.72;;;1.58;;
36321;SDS011;23564;48.290;11.460;2022-11-20T13:43:40;3.40;;;1.75;;
36321;SDS011;23564;48.290;11.460;2022-11-20T13:46:08;3.75;;;1.58;;
36321;SDS011;23564;48.290;11.460;2022-11-20T13:48:41;2.95;;;1.73;;
36321;SDS011;23564;48.290;11.460;2022-11-20T13:51:24;2.50;;;1.42;;
36321;SDS011;23564;48.290;11.460;2022-11-20T13:54:30;3.75;;;1.80;;
36321;SDS011;23564;48.290;11.460;2022-11-20T14:02:37;3.80;;;1.48;;
36321;SDS011;23564;48.290;11.460;2022-11-20T14:05:02;3.40;;;1.77;;
36321;SDS011;23564;48.290;11.460;2022-11-20T14:07:35;5.43;;;2.13;;
36321;SDS011;23564;48.290;11.460;2022-11-20T14:10:18;7.13;;;1.92;;
36321;SDS011;23564;48.290;11.460;2022-11-20T14:12:48;3.42;;;1.77;;
36321;SDS011;23564;48.290;11.460;2022-11-20T14:15:26;2.83;;;1.55;;
36321;SDS011;23564;48.290;11.460;2022-11-20T14:17:56;3.30;;;1.67;;
36321;SDS011;23564;48.290;11.460;2022-11-20T14:20:24;2.53;;;1.75;;
36321;SDS011;23564;48.290;11.460;2022-11-20T14:22:52;3.35;;;1.63;;
36321;SDS011;23564;48.290;11.460;2022-11-20T14:25:21;3.50;;;1.98;;
36321;SDS011;23564;48.290;11.460;2022-11-20T14:27:52;3.83;;;1.83;;
36321;SDS011;23564;48.290;11.460;2022-11-20T14:30:21;3.78;;;2.05;;
36321;SDS011;23564;48.290;11.460;2022-11-20T14:32:48;3.80;;;1.90;;
36321;SDS011;23564;48.290;11.460;2022-11-20T14:35:24;5.80;;;2.10;;
36321;SDS011;23564;48.290;11.460;2022-11-20T14:37:51;3.10;;;1.80;;
36321;SDS011;23564;48.290;11.460;2022-11-20T14:40:35;6.07;;;2.10;;
36321;SDS011;23564;48.290;11.460;2022-11-20T14:43:02;5.10;;;3.03;;
36321;SDS011;23564;48.290;11.460;2022-11-20T14:48:17;4.75;;;2.20;;
36321;SDS011;23564;48.290;11.460;2022-11-20T14:50:42;3.63;;;2.25;;
36321;SDS011;23564;48.290;11.460;2022-11-20T14:53:08;5.53;;;2.55;;
36321;SDS011;23564;48.290;11.460;2022-11-20T14:55:35;6.85;;;3.17;;
36321;SDS011;23564;48.290;11.460;2022-11-20T14:58:06;13.57;;;5.72;;
36321;SDS011;23564;48.290;11.460;2022-11-20T15:00:53;5.40;;;2.45;;
36321;SDS011;23564;48.290;11.460;2022-11-20T15:03:23;2.78;;;1.65;;
36321;SDS011;23564;48.290;11.460;2022-11-20T15:05:56;3.08;;;1.90;;
36321;SDS011;23564;48.290;11.460;2022-11-20T15:08:22;3.85;;;2.00;;
36321;SDS011;23564;48.290;11.460;2022-11-20T15:10:51;2.10;;;1.27;;
36321;SDS011;23564;48.290;11.460;2022-11-20T15:13:19;5.32;;;1.95;;
36321;SDS011;23564;48.290;11.460;2022-11-20T15:16:17;3.50;;;1.70;;
36321;SDS011;23564;48.290;11.460;2022-11-20T15:18:44;2.38;;;1.27;;
36321;SDS011;23564;48.290;11.460;2022-11-20T15:21:11;1.95;;;1.02;;
36321;SDS011;23564;48.290;11.460;2022-11-20T15:23:40;1.33;;;1.05;;
36321;SDS011;23564;48.290;11.460;2022-11-20T15:26:07;1.60;;;1.20;;
36321;SDS011;23564;48.290;11.460;2022-11-20T15:28:41;3.85;;;1.30;;
36321;SDS011;23564;48.290;11.460;2022-11-20T15:31:12;2.60;;;1.38;;
36321;SDS011;23564;48.290;11.460;2022-11-20T15:33:39;2.10;;;1.30;;
36321;SDS011;23564;48.290;11.460;2022-11-20T15:36:04;4.13;;;1.77;;
36321;SDS011;23564;48.290;11.460;2022-11-20T15:38:30;4.03;;;1.98;;
36321;SDS011;23564;48.290;11.460;2022-11-20T15:40:56;14.05;;;5.50;;
36321;SDS011;23564;48.290;11.460;2022-11-20T15:43:22;7.70;;;3.60;;
36321;SDS011;23564;48.290;11.460;2022-11-20T15:45:48;2.10;;;1.27;;
36321;SDS011;23564;48.290;11.460;2022-11-20T15:48:36;2.38;;;1.40;;
36321;SDS011;23564;48.290;11.460;2022-11-20T15:53:39;2.10;;;1.33;;
36321;SDS011;23564;48.290;11.460;2022-11-20T15:56:07;5.97;;;1.70;;
36321;SDS011;23564;48.290;11.460;2022-11-20T15:58:36;2.15;;;1.33;;
36321;SDS011;23564;48.290;11.460;2022-11-20T16:01:02;1.33;;;0.90;;
36321;SDS011;23564;48.290;11.460;2022-11-20T16:03:27;5.10;;;1.40;;
36321;SDS011;23564;48.290;11.460;2022-11-20T16:05:53;1.45;;;0.90;;
36321;SDS011;23564;48.290;11.460;2022-11-20T16:08:19;2.75;;;0.60;;
36321;SDS011;23564;48.290;11.460;2022-11-20T16:10:44;1.20;;;0.70;;
36321;SDS011;23564;48.290;11.460;2022-11-20T16:13:13;2.00;;;1.17;;
36321;SDS011;23564;48.290;11.460;2022-11-20T16:15:59;2.25;;;1.33;;
36321;SDS011;23564;48.290;11.460;2022-11-20T16:18:29;1.63;;;1.02;;
36321;SDS011;23564;48.290;11.460;2022-11-20T16:20:55;3.28;;;1.70;;
36321;SDS011;23564;48.290;11.460;2022-11-20T16:23:21;1.50;;;1.05;;
36321;SDS011;23564;48.290;11.460;2022-11-20T16:25:47;3.53;;;1.08;;
36321;SDS011;23564;48.290;11.460;2022-11-20T16:28:13;1.15;;;0.93;;
36321;SDS011;23564;48.290;11.460;2022-11-20T16:30:39;1.95;;;1.30;;
36321;SDS011;23564;48.290;11.460;2022-11-20T16:33:08;5.90;;;1.50;;
36321;SDS011;23564;48.290;11.460;2022-11-20T16:35:43;9.82;;;4.75;;
36321;SDS011;23564;48.290;11.460;2022-11-20T16:38:09;9.35;;;3.08;;
36321;SDS011;23564;48.290;11.460;2022-11-20T16:40:35;3.78;;;1.48;;
36321;SDS011;23564;48.290;11.460;2022-11-20T16:43:08;1.80;;;1.27;;
36321;SDS011;23564;48.290;11.460;2022-11-20T16:45:39;1.85;;;1.15;;
36321;SDS011;23564;48.290;11.460;2022-11-20T16:48:06;2.97;;;1.33;;
36321;SDS011;23564;48.290;11.460;2022-11-20T16:50:31;2.05;;;1.40;;
36321;SDS011;23564;48.290;11.460;2022-11-20T16:52:57;2.90;;;1.60;;
36321;SDS011;23564;48.290;11.460;2022-11-20T16:55:22;3.10;;;1.67;;